Time;durP1;ratioP1;P1;durP2;ratioP2;P2;SDS_P1;SDS_P2;PMS_P1;PMS_P2;Temp;Humidity;BMP_temperature;BMP_pressure;BME280_temperature;BME280_humidity;BME280_pressure;Samples;Min_cycle;Max_cycle;Signal;HPM_P1;HPM_P2
2022/10/01 00:01:00;;;;;;;6.57;4.03;;;13.00;99.90;;;;;;5005400;28;20034;-83
2022/10/01 00:03:27;;;;;;;6.82;4.43;;;12.90;99.90;;;;;;5006501;28;20530;-83
2022/10/01 00:06:13;;;;;;;8.73;5.05;;;12.90;99.90;;;;;;5007027;28;20431;-82
2022/10/01 00:08:40;;;;;;;11.45;4.32;;;12.90;99.90;;;;;;5010716;28;20065;-83
2022/10/01 00:11:18;;;;;;;7.53;4.85;;;12.80;99.90;;;;;;5007890;28;20034;-83
2022/10/01 00:13:45;;;;;;;8.40;5.03;;;12.70;99.90;;;;;;5004784;28;20049;-81
2022/10/01 00:16:14;;;;;;;6.95;4.50;;;12.80;99.90;;;;;;5009174;28;20030;-83
2022/10/01 00:18:43;;;;;;;7.70;4.80;;;12.80;99.90;;;;;;5008394;28;20087;-83
2022/10/01 00:21:18;;;;;;;8.00;5.18;;;12.80;99.90;;;;;;5010337;28;20026;-83
2022/10/01 00:23:44;;;;;;;8.20;5.55;;;12.70;99.90;;;;;;5014066;28;20018;-83
2022/10/01 00:26:22;;;;;;;8.00;5.30;;;12.70;99.90;;;;;;5007022;28;20033;-83
2022/10/01 00:28:53;;;;;;;7.82;5.25;;;12.70;99.90;;;;;;5008949;28;20099;-82
2022/10/01 00:31:19;;;;;;;8.50;4.85;;;12.70;99.90;;;;;;5007387;28;20112;-83
2022/10/01 00:33:45;;;;;;;6.57;3.80;;;12.80;99.90;;;;;;5007475;28;20737;-83
2022/10/01 00:36:11;;;;;;;6.63;4.38;;;12.80;99.90;;;;;;5008361;28;20080;-83
2022/10/01 00:38:41;;;;;;;11.00;4.55;;;12.80;99.90;;;;;;5007074;28;20026;-83
2022/10/01 00:41:08;;;;;;;6.88;5.05;;;12.70;99.90;;;;;;5008643;28;20538;-83
2022/10/01 00:43:37;;;;;;;8.60;5.13;;;12.80;99.90;;;;;;5009640;28;20037;-83
2022/10/01 00:46:14;;;;;;;9.30;5.13;;;12.80;99.90;;;;;;5007648;28;20033;-80
2022/10/01 00:48:51;;;;;;;7.28;4.95;;;12.80;99.90;;;;;;5009820;28;20029;-83
2022/10/01 00:51:17;;;;;;;7.93;5.07;;;12.80;99.90;;;;;;5006754;28;20029;-82
2022/10/01 00:53:44;;;;;;;7.82;5.50;;;12.80;99.90;;;;;;5007020;28;20455;-82
2022/10/01 00:56:10;;;;;;;8.57;5.88;;;12.80;99.90;;;;;;5007257;28;20423;-83
2022/10/01 00:58:36;;;;;;;9.73;6.03;;;12.80;99.90;;;;;;5010744;28;20041;-82
2022/10/01 01:01:02;;;;;;;9.73;5.50;;;12.80;99.90;;;;;;5011613;28;20026;-83
2022/10/01 01:03:28;;;;;;;8.05;5.25;;;12.90;99.90;;;;;;5013648;28;20072;-83
2022/10/01 01:05:54;;;;;;;7.05;4.40;;;12.90;99.90;;;;;;5012536;28;20084;-83
2022/10/01 01:08:20;;;;;;;8.45;5.22;;;12.90;99.90;;;;;;5014030;28;20531;-82
2022/10/01 01:11:01;;;;;;;9.90;6.10;;;12.90;99.90;;;;;;5011022;28;20034;-83
2022/10/01 01:13:50;;;;;;;7.75;5.57;;;12.80;99.90;;;;;;5015086;28;20088;-82
2022/10/01 01:16:39;;;;;;;7.70;4.85;;;12.80;99.90;;;;;;5011311;28;20432;-82
2022/10/01 01:19:37;;;;;;;6.85;4.90;;;12.80;99.90;;;;;;5012309;28;20875;-82
2022/10/01 01:22:06;;;;;;;7.72;5.00;;;12.80;99.90;;;;;;5001858;28;20038;-83
2022/10/01 01:24:37;;;;;;;7.90;4.97;;;12.80;99.90;;;;;;5012505;28;20733;-83
2022/10/01 01:27:40;;;;;;;8.55;5.13;;;12.80;99.90;;;;;;5009716;28;20057;-82
2022/10/01 01:30:15;;;;;;;8.48;5.68;;;12.80;99.90;;;;;;5015473;28;20032;-83
2022/10/01 01:33:02;;;;;;;10.80;5.95;;;12.80;99.90;;;;;;5010199;28;20026;-83
2022/10/01 01:35:44;;;;;;;12.57;6.03;;;12.70;99.90;;;;;;5009764;28;20034;-79
2022/10/01 01:38:14;;;;;;;8.48;5.95;;;12.70;99.90;;;;;;5033250;28;20112;-82
2022/10/01 01:40:42;;;;;;;8.02;5.65;;;12.70;99.90;;;;;;5025730;28;20042;-82
2022/10/01 01:43:16;;;;;;;8.63;5.75;;;12.70;99.90;;;;;;5012944;28;20026;-79
2022/10/01 01:45:43;;;;;;;10.02;5.22;;;12.70;99.90;;;;;;5009711;28;20029;-83
2022/10/01 01:48:12;;;;;;;9.30;6.25;;;12.70;99.90;;;;;;5009301;28;20032;-83
2022/10/01 01:50:59;;;;;;;13.98;7.75;;;12.80;99.90;;;;;;5009606;28;20113;-83
2022/10/01 01:53:25;;;;;;;9.18;6.20;;;12.80;99.90;;;;;;5008881;28;20033;-83
2022/10/01 01:55:52;;;;;;;10.27;7.28;;;12.80;99.90;;;;;;5009213;28;20045;-83
2022/10/01 01:58:18;;;;;;;9.65;6.55;;;12.80;99.90;;;;;;5012300;28;20030;-83
2022/10/01 02:00:51;;;;;;;9.27;6.40;;;12.70;99.90;;;;;;5014969;28;20033;-82
2022/10/01 02:03:20;;;;;;;9.55;6.53;;;12.70;99.90;;;;;;5012121;28;20045;-83
2022/10/01 02:06:07;;;;;;;10.32;6.38;;;12.60;99.90;;;;;;5012406;28;20028;-81
2022/10/01 02:08:48;;;;;;;9.88;5.88;;;12.60;99.90;;;;;;5010895;28;20033;-82
2022/10/01 02:11:14;;;;;;;9.27;5.82;;;12.60;99.90;;;;;;5013066;28;20049;-82
2022/10/01 02:13:49;;;;;;;7.75;5.10;;;12.70;99.90;;;;;;5012258;28;20062;-83
2022/10/01 02:16:20;;;;;;;11.02;5.78;;;12.70;99.90;;;;;;5010376;28;20057;-82
2022/10/01 02:18:55;;;;;;;9.98;6.10;;;12.60;99.90;;;;;;5012635;28;20037;-83
2022/10/01 02:21:40;;;;;;;10.07;5.82;;;12.60;99.90;;;;;;5009894;28;20361;-83
2022/10/01 02:24:13;;;;;;;11.65;6.25;;;12.60;99.90;;;;;;5013886;28;20034;-83
2022/10/01 02:26:41;;;;;;;8.43;5.85;;;12.70;99.90;;;;;;5010237;28;20362;-83
2022/10/01 02:29:12;;;;;;;9.68;6.22;;;12.70;99.90;;;;;;5007671;28;20025;-83
2022/10/01 02:31:40;;;;;;;8.52;5.55;;;12.70;99.90;;;;;;5008567;28;20032;-81
2022/10/01 02:34:07;;;;;;;10.32;5.85;;;12.50;99.90;;;;;;5010736;28;20491;-83
2022/10/01 02:36:36;;;;;;;8.43;5.20;;;12.50;99.90;;;;;;5012099;28;20030;-83
2022/10/01 02:39:04;;;;;;;7.72;5.22;;;12.50;99.90;;;;;;5008434;28;20037;-82
2022/10/01 02:41:35;;;;;;;7.20;4.60;;;12.40;99.90;;;;;;5015148;28;20069;-81
2022/10/01 02:44:09;;;;;;;8.20;4.80;;;12.30;99.90;;;;;;5009826;28;20041;-82
2022/10/01 02:46:56;;;;;;;7.25;4.35;;;12.20;99.90;;;;;;5011700;28;20452;-83
2022/10/01 02:49:23;;;;;;;6.93;4.43;;;12.20;99.90;;;;;;5008443;28;20066;-83
2022/10/01 02:51:54;;;;;;;7.22;4.97;;;12.20;99.90;;;;;;5014517;28;20034;-83
2022/10/01 02:54:29;;;;;;;7.65;5.03;;;12.30;99.90;;;;;;5010026;28;20061;-82
2022/10/01 02:59:39;;;;;;;7.70;4.38;;;12.50;99.90;;;;;;5009021;28;19918;-82
2022/10/01 03:02:05;;;;;;;6.88;4.30;;;12.50;99.90;;;;;;5012264;28;20030;-81
2022/10/01 03:04:31;;;;;;;8.55;4.65;;;12.50;99.90;;;;;;5006022;28;20045;-81
2022/10/01 03:07:02;;;;;;;8.38;5.47;;;12.40;99.90;;;;;;5004423;28;20030;-80
2022/10/01 03:09:29;;;;;;;8.15;5.25;;;12.40;99.90;;;;;;5010061;28;20060;-81
2022/10/01 03:11:56;;;;;;;10.27;5.13;;;12.50;99.90;;;;;;5006173;28;20137;-81
2022/10/01 03:14:23;;;;;;;10.20;6.35;;;12.60;99.90;;;;;;5006117;28;20049;-81
2022/10/01 03:16:49;;;;;;;8.55;5.93;;;12.60;99.90;;;;;;5000978;28;20038;-81
2022/10/01 03:19:16;;;;;;;11.13;5.70;;;12.60;99.90;;;;;;5003373;28;20053;-82
2022/10/01 03:21:42;;;;;;;10.73;5.50;;;12.60;99.90;;;;;;5002133;28;20056;-80
2022/10/01 03:24:08;;;;;;;9.15;4.85;;;12.60;99.90;;;;;;5007693;28;20061;-81
2022/10/01 03:26:33;;;;;;;9.23;5.38;;;12.60;99.90;;;;;;5005838;28;20032;-81
2022/10/01 03:28:59;;;;;;;7.68;5.25;;;12.60;99.90;;;;;;5007362;28;20026;-80
2022/10/01 03:31:26;;;;;;;8.60;5.20;;;12.50;99.90;;;;;;5005854;28;20103;-81
2022/10/01 03:33:51;;;;;;;8.48;5.82;;;12.60;99.90;;;;;;5004515;28;20060;-81
2022/10/01 03:36:17;;;;;;;9.18;5.93;;;12.60;99.90;;;;;;5008881;28;20403;-80
2022/10/01 03:38:43;;;;;;;11.27;7.13;;;12.60;99.90;;;;;;5007665;28;20053;-81
2022/10/01 03:41:08;;;;;;;11.27;7.90;;;12.60;99.90;;;;;;5006882;28;20386;-81
2022/10/01 03:43:34;;;;;;;12.63;8.02;;;12.60;99.90;;;;;;5002198;28;20033;-81
2022/10/01 03:46:00;;;;;;;10.23;7.70;;;12.70;99.90;;;;;;5006365;28;20060;-81
2022/10/01 03:48:26;;;;;;;11.52;7.85;;;12.70;99.90;;;;;;5005124;28;20045;-80
2022/10/01 03:50:56;;;;;;;11.38;7.93;;;12.70;99.90;;;;;;5002758;28;20101;-80
2022/10/01 03:53:24;;;;;;;10.48;7.20;;;12.70;99.90;;;;;;5004188;28;20034;-81
2022/10/01 03:55:49;;;;;;;11.73;7.22;;;12.70;99.90;;;;;;5008943;28;20032;-82
2022/10/01 03:58:17;;;;;;;11.70;8.27;;;12.70;99.90;;;;;;5008849;28;20112;-82
2022/10/01 04:00:44;;;;;;;12.23;8.05;;;12.70;99.90;;;;;;5002896;28;20558;-82
2022/10/01 04:03:10;;;;;;;12.07;8.00;;;12.70;99.90;;;;;;5001108;28;20047;-82
2022/10/01 04:05:36;;;;;;;13.18;8.20;;;12.70;99.90;;;;;;5006317;28;20460;-81
2022/10/01 04:08:01;;;;;;;12.50;8.02;;;12.70;99.90;;;;;;5005400;28;20120;-82
2022/10/01 04:10:27;;;;;;;15.02;8.45;;;12.80;99.90;;;;;;5005335;28;20034;-81
2022/10/01 04:12:54;;;;;;;12.50;8.57;;;12.80;99.90;;;;;;4999444;28;20776;-81
2022/10/01 04:15:21;;;;;;;12.70;8.80;;;12.80;99.90;;;;;;4998882;28;20599;-82
2022/10/01 04:17:47;;;;;;;11.95;8.05;;;12.80;99.90;;;;;;5008263;28;20034;-82
2022/10/01 04:20:13;;;;;;;11.05;7.90;;;12.80;99.90;;;;;;5000492;28;20030;-81
2022/10/01 04:22:40;;;;;;;11.48;6.55;;;12.80;99.90;;;;;;5000391;28;20034;-82
2022/10/01 04:25:10;;;;;;;12.35;7.25;;;12.80;99.90;;;;;;5007756;28;20030;-81
2022/10/01 04:27:41;;;;;;;10.68;6.80;;;12.70;99.90;;;;;;5001995;28;20041;-81
2022/10/01 04:30:08;;;;;;;12.95;8.48;;;12.60;99.90;;;;;;5000293;28;20030;-81
2022/10/01 04:32:34;;;;;;;15.73;10.45;;;12.50;99.90;;;;;;5003463;28;20034;-81
2022/10/01 04:35:02;;;;;;;17.65;10.60;;;12.50;99.90;;;;;;5008517;28;20026;-82
2022/10/01 04:37:27;;;;;;;17.08;11.73;;;12.60;99.90;;;;;;5004578;28;20037;-82
2022/10/01 04:39:53;;;;;;;14.48;9.88;;;12.60;99.90;;;;;;5004417;28;20041;-81
2022/10/01 04:42:20;;;;;;;17.45;10.60;;;12.70;99.90;;;;;;5008900;28;20088;-82
2022/10/01 04:44:46;;;;;;;17.15;10.80;;;12.70;99.90;;;;;;5005968;28;20120;-81
2022/10/01 04:47:12;;;;;;;15.45;9.98;;;12.70;99.90;;;;;;5003529;28;20129;-80
2022/10/01 04:49:38;;;;;;;16.83;10.23;;;12.70;99.90;;;;;;5010393;28;20029;-81
2022/10/01 04:52:04;;;;;;;15.40;10.27;;;12.70;99.90;;;;;;5005420;28;20041;-81
2022/10/01 04:54:29;;;;;;;15.85;9.95;;;12.70;99.90;;;;;;5005874;28;20034;-82
2022/10/01 04:56:57;;;;;;;15.73;9.68;;;12.70;99.90;;;;;;5008480;28;20368;-81
2022/10/01 04:59:24;;;;;;;13.27;8.60;;;12.70;99.90;;;;;;5004547;28;20104;-82
2022/10/01 05:01:50;;;;;;;15.98;9.90;;;12.70;99.90;;;;;;5004371;28;20128;-81
2022/10/01 05:04:16;;;;;;;15.80;10.55;;;12.70;99.90;;;;;;5007919;28;20126;-81
2022/10/01 05:06:41;;;;;;;16.75;10.43;;;12.70;99.90;;;;;;5007285;28;20149;-80
2022/10/01 05:09:07;;;;;;;18.90;10.88;;;12.70;99.90;;;;;;5008032;28;20056;-82
2022/10/01 05:11:37;;;;;;;14.48;10.77;;;12.70;99.90;;;;;;5004540;28;20403;-80
2022/10/01 05:14:03;;;;;;;16.23;11.80;;;12.60;99.90;;;;;;5008759;28;20076;-82
2022/10/01 05:16:29;;;;;;;14.63;10.20;;;12.60;99.90;;;;;;5002694;28;20069;-82
2022/10/01 05:18:55;;;;;;;15.02;10.48;;;12.60;99.90;;;;;;5007592;28;20120;-82
2022/10/01 05:21:20;;;;;;;16.00;10.35;;;12.60;99.90;;;;;;5005739;28;20034;-82
2022/10/01 05:23:46;;;;;;;16.92;10.65;;;12.60;99.90;;;;;;5006102;28;20111;-81
2022/10/01 05:26:12;;;;;;;16.23;11.25;;;12.60;99.90;;;;;;5006686;28;20022;-82
2022/10/01 05:28:43;;;;;;;16.02;11.02;;;12.60;99.90;;;;;;5006558;28;20121;-81
2022/10/01 05:31:10;;;;;;;15.13;10.18;;;12.70;99.90;;;;;;5009331;28;20025;-81
2022/10/01 05:33:36;;;;;;;14.98;10.82;;;12.70;99.90;;;;;;5006148;28;20128;-81
2022/10/01 05:36:04;;;;;;;14.35;9.93;;;12.70;99.90;;;;;;5007776;28;20029;-81
2022/10/01 05:38:30;;;;;;;16.85;10.30;;;12.70;99.90;;;;;;5010538;28;20088;-80
2022/10/01 05:40:56;;;;;;;16.10;10.23;;;12.80;99.90;;;;;;5006585;28;20061;-81
2022/10/01 05:43:21;;;;;;;15.55;9.98;;;12.80;99.90;;;;;;5007216;28;20484;-81
2022/10/01 05:45:48;;;;;;;13.35;9.82;;;12.80;99.90;;;;;;5007226;28;20026;-82
2022/10/01 05:48:14;;;;;;;16.38;10.43;;;12.80;99.90;;;;;;5014508;28;20049;-81
2022/10/01 05:50:41;;;;;;;19.02;11.18;;;12.80;99.90;;;;;;5017686;28;20026;-82
2022/10/01 05:53:08;;;;;;;16.40;10.60;;;12.80;99.90;;;;;;5006741;28;20034;-82
2022/10/01 05:55:34;;;;;;;12.88;9.30;;;12.80;99.90;;;;;;5004381;28;20034;-82
2022/10/01 05:58:05;;;;;;;14.90;9.88;;;12.80;99.90;;;;;;5007856;28;20041;-82
2022/10/01 06:00:33;;;;;;;19.17;10.82;;;12.80;99.90;;;;;;5007048;28;20510;-81
2022/10/01 06:03:00;;;;;;;15.25;10.95;;;12.90;99.90;;;;;;5008629;28;20037;-80
2022/10/01 06:05:27;;;;;;;16.42;10.82;;;12.80;99.90;;;;;;5007636;28;20041;-80
2022/10/01 06:07:53;;;;;;;15.63;10.15;;;12.90;99.90;;;;;;5005448;28;20526;-81
2022/10/01 06:10:20;;;;;;;15.70;11.15;;;12.90;99.90;;;;;;5002345;28;20037;-80
2022/10/01 06:12:47;;;;;;;19.60;10.80;;;13.00;99.90;;;;;;5000459;28;20030;-81
2022/10/01 06:15:14;;;;;;;15.95;11.07;;;12.90;99.90;;;;;;5007432;28;20184;-81
2022/10/01 06:17:43;;;;;;;19.10;11.85;;;12.80;99.90;;;;;;5005737;28;20034;-81
2022/10/01 06:20:14;;;;;;;15.05;10.77;;;12.90;99.90;;;;;;5008868;28;20965;-81
2022/10/01 06:22:41;;;;;;;15.45;9.63;;;12.90;99.90;;;;;;5006402;28;20034;-80
2022/10/01 06:25:12;;;;;;;17.83;11.50;;;13.00;99.90;;;;;;5007688;28;20120;-82
2022/10/01 06:27:38;;;;;;;14.98;10.63;;;13.00;99.90;;;;;;5006130;28;20117;-83
2022/10/01 06:30:05;;;;;;;15.95;11.35;;;13.10;99.90;;;;;;5008579;28;20045;-83
2022/10/01 06:32:30;;;;;;;16.63;11.05;;;13.30;99.90;;;;;;5008377;28;20104;-83
2022/10/01 06:34:56;;;;;;;17.63;11.88;;;13.30;99.90;;;;;;5004472;28;20184;-83
2022/10/01 06:37:22;;;;;;;17.08;10.80;;;13.30;99.90;;;;;;5007607;28;20073;-82
2022/10/01 06:39:48;;;;;;;19.02;12.43;;;13.40;99.90;;;;;;5003560;28;20399;-83
2022/10/01 06:42:13;;;;;;;18.48;11.65;;;13.40;99.90;;;;;;5015025;28;20051;-82
2022/10/01 06:44:41;;;;;;;16.42;10.82;;;13.40;99.90;;;;;;5020208;28;20029;-83
2022/10/01 06:47:07;;;;;;;14.05;9.73;;;13.40;99.90;;;;;;5016999;28;20052;-81
2022/10/01 06:49:33;;;;;;;17.30;12.10;;;13.40;99.90;;;;;;5012744;28;20061;-83
2022/10/01 06:54:43;;;;;;;17.77;11.23;;;13.40;99.90;;;;;;5009093;28;20052;-85
2022/10/01 06:57:09;;;;;;;17.00;11.05;;;13.30;99.90;;;;;;5009877;28;20038;-83
2022/10/01 06:59:35;;;;;;;19.20;12.57;;;13.30;99.90;;;;;;5006838;28;20033;-80
2022/10/01 07:02:02;;;;;;;16.88;12.00;;;13.30;99.90;;;;;;5010093;28;20049;-83
2022/10/01 07:04:28;;;;;;;17.02;11.25;;;13.40;99.90;;;;;;5002323;28;20033;-84
2022/10/01 07:06:54;;;;;;;18.88;12.77;;;13.30;99.90;;;;;;5007654;28;20025;-83
2022/10/01 07:09:24;;;;;;;18.15;11.18;;;13.40;99.90;;;;;;5008192;28;20034;-84
2022/10/01 07:11:49;;;;;;;20.30;12.93;;;13.40;99.90;;;;;;5002698;28;20163;-85
2022/10/01 07:14:15;;;;;;;19.38;12.05;;;13.50;99.90;;;;;;5006337;28;20569;-84
2022/10/01 07:16:41;;;;;;;19.08;11.98;;;13.40;99.90;;;;;;5012421;28;20038;-84
2022/10/01 07:19:06;;;;;;;21.35;14.07;;;13.50;99.90;;;;;;5009418;28;20076;-83
2022/10/01 07:21:32;;;;;;;18.42;13.30;;;13.50;99.90;;;;;;5013565;28;20037;-84
2022/10/01 07:23:57;;;;;;;17.92;12.15;;;13.60;99.90;;;;;;5008685;28;20042;-84
2022/10/01 07:26:23;;;;;;;16.65;11.10;;;13.70;99.90;;;;;;5005960;28;20082;-83
2022/10/01 07:28:49;;;;;;;17.10;11.98;;;13.80;99.90;;;;;;5008245;28;20036;-84
2022/10/01 07:31:14;;;;;;;16.95;12.23;;;13.90;99.90;;;;;;5002197;28;20037;-84
2022/10/01 07:33:40;;;;;;;16.35;12.43;;;14.00;99.90;;;;;;5008582;28;20034;-84
2022/10/01 07:36:08;;;;;;;16.70;11.38;;;14.10;99.90;;;;;;5009504;28;20377;-84
2022/10/01 07:38:34;;;;;;;16.02;11.57;;;14.10;99.90;;;;;;5008775;28;20037;-84
2022/10/01 07:41:03;;;;;;;15.00;11.25;;;14.10;99.90;;;;;;5005536;28;20026;-82
2022/10/01 07:43:31;;;;;;;16.88;11.18;;;14.00;99.90;;;;;;5013583;28;20032;-84
2022/10/01 07:45:58;;;;;;;16.45;11.45;;;14.00;99.90;;;;;;5017598;28;20476;-85
2022/10/01 07:48:25;;;;;;;14.77;10.38;;;14.10;99.90;;;;;;5007329;28;20030;-82
2022/10/01 07:50:51;;;;;;;16.77;9.57;;;14.10;99.90;;;;;;5004041;28;20091;-82
2022/10/01 07:53:18;;;;;;;14.30;10.40;;;14.20;99.90;;;;;;5001090;28;20041;-83
2022/10/01 07:55:44;;;;;;;14.18;10.63;;;14.20;99.90;;;;;;5009206;28;20036;-84
2022/10/01 07:58:10;;;;;;;16.38;10.63;;;14.20;99.90;;;;;;5004985;28;20100;-83
2022/10/01 08:00:37;;;;;;;15.43;10.30;;;14.40;99.90;;;;;;5006105;28;20518;-84
2022/10/01 08:03:03;;;;;;;14.05;9.90;;;14.50;99.90;;;;;;5005195;28;20136;-82
2022/10/01 08:05:31;;;;;;;14.88;10.40;;;14.60;99.90;;;;;;5000600;28;20499;-84
2022/10/01 08:08:02;;;;;;;12.10;9.48;;;14.60;99.90;;;;;;5009247;28;20041;-80
2022/10/01 08:10:29;;;;;;;14.68;10.02;;;14.70;99.90;;;;;;5013475;28;20030;-86
2022/10/01 08:13:04;;;;;;;12.98;9.95;;;14.70;99.90;;;;;;5006575;28;20099;-83
2022/10/01 08:15:30;;;;;;;14.00;9.95;;;14.70;99.90;;;;;;5006923;28;20112;-83
2022/10/01 08:18:01;;;;;;;12.65;9.38;;;14.80;99.90;;;;;;5005829;28;20183;-79
2022/10/01 08:20:27;;;;;;;11.57;9.23;;;14.80;99.90;;;;;;5010049;28;20025;-84
2022/10/01 08:22:53;;;;;;;13.65;8.95;;;15.00;99.90;;;;;;5006526;28;20034;-83
2022/10/01 08:25:18;;;;;;;13.35;9.50;;;15.10;99.90;;;;;;5006848;28;20038;-83
2022/10/01 08:27:44;;;;;;;11.02;8.45;;;15.20;99.90;;;;;;5003967;28;20032;-82
2022/10/01 08:30:10;;;;;;;12.25;8.80;;;15.30;99.90;;;;;;5004192;28;20161;-83
2022/10/01 08:32:36;;;;;;;13.45;9.57;;;15.30;99.90;;;;;;5005092;28;20050;-83
2022/10/01 08:35:03;;;;;;;14.32;10.90;;;15.20;99.90;;;;;;5006108;28;20041;-83
2022/10/01 08:37:29;;;;;;;12.68;9.70;;;15.20;99.90;;;;;;5006178;28;20046;-82
2022/10/01 08:39:55;;;;;;;15.20;10.05;;;15.30;99.90;;;;;;5008604;28;20076;-83
2022/10/01 08:42:36;;;;;;;11.98;8.55;;;15.20;99.90;;;;;;5008360;28;20029;-83
2022/10/01 08:45:08;;;;;;;11.55;8.30;;;15.20;99.90;;;;;;5007744;28;20084;-83
2022/10/01 08:47:38;;;;;;;13.52;8.25;;;15.30;99.90;;;;;;5008199;28;20044;-83
2022/10/01 08:50:34;;;;;;;12.95;7.60;;;15.30;99.90;;;;;;5017689;28;20547;-80
2022/10/01 08:53:02;;;;;;;10.07;6.82;;;15.30;99.90;;;;;;5001169;28;20064;-82
2022/10/01 08:55:35;;;;;;;10.55;6.50;;;15.30;99.90;;;;;;5009256;28;20499;-82
2022/10/01 08:58:08;;;;;;;10.10;6.47;;;15.10;99.90;;;;;;5008839;28;20606;-83
2022/10/01 09:00:39;;;;;;;10.50;7.20;;;15.30;99.90;;;;;;5008075;28;20156;-84
2022/10/01 09:03:09;;;;;;;11.02;7.82;;;15.40;99.90;;;;;;5026924;28;20518;-83
2022/10/01 09:05:45;;;;;;;10.40;7.57;;;15.50;99.90;;;;;;5027616;28;20116;-83
2022/10/01 09:08:42;;;;;;;11.65;7.55;;;15.70;99.90;;;;;;5025616;28;20026;-83
2022/10/01 09:11:34;;;;;;;10.60;7.47;;;15.60;99.90;;;;;;5007998;28;20022;-81
2022/10/01 09:14:28;;;;;;;9.75;7.05;;;15.60;99.90;;;;;;5013030;28;20172;-84
2022/10/01 09:17:38;;;;;;;8.88;6.80;;;15.50;99.90;;;;;;5009571;28;20750;-84
2022/10/01 09:20:24;;;;;;;9.75;6.75;;;15.60;99.90;;;;;;5003381;28;20535;-82
2022/10/01 09:23:03;;;;;;;9.52;6.22;;;15.70;99.90;;;;;;5013520;28;20109;-82
2022/10/01 09:25:30;;;;;;;14.10;7.30;;;15.60;99.90;;;;;;5012128;28;20030;-84
2022/10/01 09:28:38;;;;;;;12.52;7.60;;;15.70;99.90;;;;;;5028415;28;20033;-84
2022/10/01 09:31:30;;;;;;;10.45;6.53;;;15.80;99.90;;;;;;5016939;28;20037;-82
2022/10/01 09:34:08;;;;;;;9.45;6.75;;;15.90;99.90;;;;;;5012991;28;20065;-81
2022/10/01 09:37:15;;;;;;;10.93;5.85;;;15.80;99.90;;;;;;5011515;28;20393;-77
2022/10/01 09:39:50;;;;;;;6.22;4.85;;;15.70;99.90;;;;;;5008427;28;20036;-80
2022/10/01 09:42:17;;;;;;;8.30;5.90;;;15.70;99.90;;;;;;5010179;28;20089;-79
2022/10/01 09:44:43;;;;;;;8.13;5.80;;;15.70;99.90;;;;;;5006859;28;20025;-78
2022/10/01 09:47:20;;;;;;;8.98;6.35;;;15.90;99.90;;;;;;5007770;28;20037;-79
2022/10/01 09:49:48;;;;;;;8.80;6.32;;;15.90;99.90;;;;;;5008317;28;20018;-79
2022/10/01 09:52:35;;;;;;;10.00;6.90;;;15.90;99.90;;;;;;5007162;28;20029;-80
2022/10/01 09:55:25;;;;;;;7.55;5.78;;;15.90;99.90;;;;;;5005435;28;20025;-75
2022/10/01 09:58:02;;;;;;;9.05;6.75;;;15.90;99.90;;;;;;5014875;28;20041;-79
2022/10/01 10:00:27;;;;;;;10.80;7.82;;;16.00;99.90;;;;;;5029197;28;20128;-78
2022/10/01 10:02:54;;;;;;;13.48;6.97;;;16.00;99.90;;;;;;5012750;28;20069;-77
2022/10/01 10:05:23;;;;;;;10.13;6.65;;;16.00;99.90;;;;;;5018284;28;20388;-77
2022/10/01 10:08:04;;;;;;;9.30;6.47;;;15.90;99.90;;;;;;5008419;28;20034;-77
2022/10/01 10:10:35;;;;;;;12.05;7.35;;;16.10;99.90;;;;;;5014719;28;20034;-78
2022/10/01 10:13:10;;;;;;;11.18;8.02;;;16.10;99.90;;;;;;5003130;28;20042;-81
2022/10/01 10:15:48;;;;;;;9.13;7.07;;;16.20;99.90;;;;;;5002085;28;20534;-78
2022/10/01 10:18:16;;;;;;;10.13;7.45;;;16.40;99.90;;;;;;5001500;28;20049;-82
2022/10/01 10:20:44;;;;;;;9.60;7.38;;;16.40;99.90;;;;;;5002438;28;20665;-83
2022/10/01 10:23:18;;;;;;;19.45;8.32;;;16.30;99.90;;;;;;5008895;28;20033;-84
2022/10/01 10:25:54;;;;;;;;;;;16.30;99.90;;;;;;5011978;28;20168;-84
2022/10/01 10:28:23;;;;;;;8.80;6.78;;;16.30;99.90;;;;;;5019422;28;19909;-83
2022/10/01 10:30:54;;;;;;;11.07;7.70;;;16.20;99.90;;;;;;5009282;28;20507;-83
2022/10/01 10:33:22;;;;;;;12.63;7.63;;;16.20;99.90;;;;;;5005576;28;20033;-83
2022/10/01 10:36:05;;;;;;;11.27;7.20;;;16.30;99.90;;;;;;5009418;28;20431;-84
2022/10/01 10:38:33;;;;;;;9.55;6.20;;;16.30;99.90;;;;;;5009111;28;20042;-83
2022/10/01 10:40:59;;;;;;;11.93;7.22;;;16.40;99.90;;;;;;5019250;28;20084;-83
2022/10/01 10:43:33;;;;;;;8.80;6.88;;;16.30;99.90;;;;;;5014319;28;21051;-82
2022/10/01 10:45:59;;;;;;;9.50;6.90;;;16.50;99.90;;;;;;5006900;28;20033;-83
2022/10/01 10:48:38;;;;;;;9.35;6.50;;;16.70;99.90;;;;;;5006562;28;20108;-83
2022/10/01 10:51:04;;;;;;;7.80;5.28;;;16.80;99.90;;;;;;5006166;28;20140;-83
2022/10/01 10:53:43;;;;;;;8.98;5.43;;;16.70;99.90;;;;;;5005035;28;20034;-82
2022/10/01 10:56:23;;;;;;;6.93;4.95;;;17.00;99.90;;;;;;5005988;28;20573;-83
2022/10/01 10:58:52;;;;;;;6.32;4.43;;;16.90;99.90;;;;;;5003893;28;20496;-83
2022/10/01 11:01:27;;;;;;;7.30;4.90;;;16.80;99.90;;;;;;5004330;28;20805;-82
2022/10/01 11:03:56;;;;;;;7.45;4.65;;;16.60;99.90;;;;;;5011925;28;20034;-83
2022/10/01 11:06:22;;;;;;;7.53;4.38;;;16.90;99.90;;;;;;5005256;28;20057;-83
2022/10/01 11:08:56;;;;;;;7.07;4.75;;;17.10;99.90;;;;;;5005250;28;20482;-83
2022/10/01 11:11:33;;;;;;;5.00;3.20;;;17.00;99.90;;;;;;5005469;28;20036;-83
2022/10/01 11:14:46;;;;;;;6.45;3.35;;;17.10;99.90;;;;;;5006435;28;20034;-83
2022/10/01 11:17:23;;;;;;;5.63;3.72;;;16.90;99.90;;;;;;4982648;28;20757;-83
2022/10/01 11:20:29;;;;;;;6.90;4.28;;;17.00;99.90;;;;;;5001366;28;21004;-84
2022/10/01 11:23:35;;;;;;;6.38;3.75;;;17.10;99.90;;;;;;5004663;28;20038;-83
2022/10/01 11:26:25;;;;;;;6.72;4.45;;;17.00;99.90;;;;;;5008981;28;20544;-83
2022/10/01 11:29:02;;;;;;;7.47;4.95;;;17.10;99.90;;;;;;5009489;28;20084;-83
2022/10/01 11:31:40;;;;;;;9.60;5.22;;;17.10;99.90;;;;;;5006086;28;20038;-83
2022/10/01 11:34:17;;;;;;;6.38;4.15;;;17.10;99.90;;;;;;5012030;28;20087;-83
2022/10/01 11:37:09;;;;;;;8.73;5.07;;;17.10;99.90;;;;;;5006313;28;20042;-84
2022/10/01 11:39:40;;;;;;;6.65;4.35;;;17.30;99.90;;;;;;5009605;28;20022;-83
2022/10/01 11:42:15;;;;;;;7.50;4.55;;;17.20;99.90;;;;;;5004747;28;20037;-83
2022/10/01 11:44:45;;;;;;;6.07;4.15;;;17.10;99.90;;;;;;5004987;28;20037;-84
2022/10/01 11:47:24;;;;;;;10.95;4.60;;;17.20;99.90;;;;;;5005734;28;20025;-82
2022/10/01 11:49:59;;;;;;;9.07;4.70;;;17.10;99.90;;;;;;5006911;28;20029;-83
2022/10/01 11:52:36;;;;;;;6.25;3.78;;;17.30;99.90;;;;;;5005413;28;20276;-83
2022/10/01 12:01:17;;;;;;;7.68;3.72;;;17.50;99.90;;;;;;5006622;28;20488;-83
2022/10/01 12:03:52;;;;;;;5.15;3.30;;;17.50;99.90;;;;;;5004643;28;20048;-83
2022/10/01 12:06:52;;;;;;;5.10;2.97;;;17.70;99.90;;;;;;5004385;28;20038;-83
2022/10/01 12:09:42;;;;;;;4.95;2.63;;;17.60;99.90;;;;;;5004711;28;20030;-83
2022/10/01 12:12:17;;;;;;;3.50;1.75;;;17.70;99.90;;;;;;5004820;28;20041;-82
2022/10/01 12:14:51;;;;;;;4.13;1.92;;;17.60;99.90;;;;;;5008019;28;20037;-83
2022/10/01 12:17:31;;;;;;;3.78;2.00;;;17.70;99.90;;;;;;5004941;28;20073;-83
2022/10/01 12:20:00;;;;;;;2.30;1.40;;;17.80;99.90;;;;;;5009565;28;20975;-83
2022/10/01 12:22:36;;;;;;;4.43;1.65;;;17.60;99.90;;;;;;5004946;28;20041;-83
2022/10/01 12:25:02;;;;;;;4.25;1.80;;;17.50;99.90;;;;;;5009309;28;20030;-83
2022/10/01 12:27:40;;;;;;;4.57;1.73;;;17.40;99.90;;;;;;5006307;28;20566;-83
2022/10/01 12:30:19;;;;;;;3.42;1.90;;;17.60;99.90;;;;;;5007295;28;20065;-83
2022/10/01 12:33:08;;;;;;;3.45;2.20;;;17.70;99.90;;;;;;5005463;28;20029;-83
2022/10/01 12:36:02;;;;;;;4.50;2.50;;;17.80;99.90;;;;;;5007576;28;20095;-83
2022/10/01 12:39:00;;;;;;;3.97;2.22;;;17.80;99.90;;;;;;5011522;28;20094;-83
2022/10/01 12:41:46;;;;;;;4.15;2.55;;;17.80;99.90;;;;;;5007555;28;20095;-83
2022/10/01 12:44:18;;;;;;;4.15;1.95;;;17.60;99.90;;;;;;5013862;28;20545;-83
2022/10/01 12:46:48;;;;;;;5.10;2.10;;;17.60;99.90;;;;;;5014052;28;20025;-83
2022/10/01 12:49:28;;;;;;;3.67;2.13;;;17.60;99.90;;;;;;5006228;28;20042;-83
2022/10/01 12:52:26;;;;;;;3.75;1.98;;;17.80;99.90;;;;;;5003820;28;20037;-84
2022/10/01 12:55:20;;;;;;;4.75;1.92;;;17.90;99.90;;;;;;5007211;28;20043;-83
2022/10/01 12:57:49;;;;;;;5.95;1.80;;;18.00;99.90;;;;;;5009013;28;20514;-83
2022/10/01 13:00:19;;;;;;;2.35;1.35;;;18.10;99.90;;;;;;5007698;28;20033;-80
2022/10/01 13:03:35;;;;;;;2.95;1.55;;;18.10;99.90;;;;;;5010409;28;20030;-83
2022/10/01 13:06:22;;;;;;;4.03;1.77;;;18.30;99.90;;;;;;5009126;28;20120;-84
2022/10/01 13:08:56;;;;;;;2.63;1.30;;;18.30;99.90;;;;;;5009026;28;20021;-83
2022/10/01 13:11:49;;;;;;;3.25;1.65;;;18.30;99.90;;;;;;5006834;28;20088;-83
2022/10/01 13:14:17;;;;;;;3.90;1.88;;;18.10;99.90;;;;;;5010214;28;20050;-83